Time;durP1;ratioP1;P1;durP2;ratioP2;P2;SDS_P1;SDS_P2;PMS_P1;PMS_P2;Temp;Humidity;BMP_temperature;BMP_pressure;BME280_temperature;BME280_humidity;BME280_pressure;Samples;Min_cycle;Max_cycle;Signal;HPM_P1;HPM_P2
2021/11/02 00:01:55;;;;;;;;;;;18.70;62.60;;;;;;5046278;28;19924;-55
2021/11/02 00:04:21;;;;;;;;;;;18.70;62.50;;;;;;5045514;28;19913;-55
2021/11/02 00:06:46;;;;;;;;;;;18.70;62.60;;;;;;5044847;28;19921;-58
2021/11/02 00:09:13;;;;;;;;;;;18.70;62.50;;;;;;5045404;28;19912;-55
2021/11/02 00:11:39;;;;;;;;;;;18.70;62.80;;;;;;5045310;28;20434;-58
2021/11/02 00:14:08;;;;;;;;;;;18.70;62.50;;;;;;5044498;28;21276;-57
2021/11/02 00:16:34;;;;;;;;;;;18.70;62.50;;;;;;5045337;28;19920;-59
2021/11/02 00:19:05;;;;;;;;;;;18.70;62.50;;;;;;5044958;28;19913;-55
2021/11/02 00:21:33;;;;;;;;;;;18.70;62.50;;;;;;5037850;28;19921;-55
2021/11/02 00:24:10;;;;;;;;;;;18.70;62.50;;;;;;5045248;28;19919;-57
2021/11/02 00:26:36;;;;;;;;;;;18.60;62.40;;;;;;5045362;28;20392;-57
2021/11/02 00:29:02;;;;;;;;;;;18.70;62.50;;;;;;5048500;28;19948;-57
2021/11/02 00:31:28;;;;;;;;;;;18.60;62.40;;;;;;5028381;28;19982;-58
2021/11/02 00:33:53;;;;;;;;;;;18.70;62.50;;;;;;5044573;28;19966;-58
2021/11/02 00:36:18;;;;;;;;;;;18.60;62.40;;;;;;5044497;28;19917;-58
2021/11/02 00:38:44;;;;;;;;;;;18.70;62.40;;;;;;5044554;28;19913;-55
2021/11/02 00:41:09;;;;;;;;;;;18.60;62.40;;;;;;5044647;28;19927;-53
2021/11/02 00:43:36;;;;;;;;;;;18.70;62.40;;;;;;5044182;28;20499;-54
2021/11/02 00:46:01;;;;;;;;;;;18.70;62.40;;;;;;5044945;28;19935;-56
2021/11/02 00:48:28;;;;;;;;;;;18.60;62.40;;;;;;5044051;28;19913;-55
2021/11/02 00:50:53;;;;;;;;;;;18.60;62.40;;;;;;5043473;28;19917;-55
2021/11/02 00:53:18;;;;;;;;;;;18.60;62.50;;;;;;5043934;28;20271;-54
2021/11/02 00:55:44;;;;;;;;;;;18.60;62.40;;;;;;5044543;28;19913;-54
2021/11/02 00:58:10;;;;;;;;;;;18.60;62.40;;;;;;5025936;28;19931;-56
2021/11/02 01:00:35;;;;;;;;;;;18.60;62.50;;;;;;5044578;28;19913;-57
2021/11/02 01:03:01;;;;;;;;;;;18.60;62.50;;;;;;5044298;28;19945;-55
2021/11/02 01:05:26;;;;;;;;;;;18.60;62.50;;;;;;5043202;28;19917;-57
2021/11/02 01:07:52;;;;;;;;;;;18.60;62.50;;;;;;5043530;28;19924;-58
2021/11/02 01:10:17;;;;;;;;;;;18.60;62.50;;;;;;5044098;28;19941;-57
2021/11/02 01:12:43;;;;;;;;;;;18.60;62.50;;;;;;5043752;28;19917;-55
2021/11/02 01:15:09;;;;;;;;;;;18.60;62.50;;;;;;5043412;28;20112;-57
2021/11/02 01:17:35;;;;;;;;;;;18.60;62.50;;;;;;5043874;28;19913;-56
2021/11/02 01:20:00;;;;;;;;;;;18.60;62.50;;;;;;5043864;28;19967;-56
2021/11/02 01:22:26;;;;;;;;;;;18.60;62.50;;;;;;5043807;28;19924;-58
2021/11/02 01:24:51;;;;;;;;;;;18.60;62.50;;;;;;5044332;28;19913;-56
2021/11/02 01:27:17;;;;;;;;;;;18.60;62.50;;;;;;5043475;28;20038;-57
2021/11/02 01:29:42;;;;;;;;;;;18.60;62.50;;;;;;5043588;28;19920;-56
2021/11/02 01:32:09;;;;;;;;;;;18.60;62.50;;;;;;5043829;28;20363;-56
2021/11/02 01:34:34;;;;;;;;;;;18.60;63.10;;;;;;5043595;28;19913;-56
2021/11/02 01:37:00;;;;;;;;;;;18.60;62.50;;;;;;5043245;28;20395;-58
2021/11/02 01:39:26;;;;;;;;;;;18.60;62.50;;;;;;5043730;28;19912;-56
2021/11/02 01:41:52;;;;;;;;;;;18.60;62.40;;;;;;5042447;28;19923;-57
2021/11/02 01:44:18;;;;;;;;;;;18.60;63.00;;;;;;5025873;28;19917;-58
2021/11/02 01:46:44;;;;;;;;;;;18.60;62.40;;;;;;5043503;28;20427;-55
2021/11/02 01:49:09;;;;;;;;;;;18.60;62.40;;;;;;5043106;28;19938;-58
2021/11/02 01:51:35;;;;;;;;;;;18.60;62.40;;;;;;5043928;28;20127;-57
2021/11/02 01:54:01;;;;;;;;;;;18.60;62.30;;;;;;5042905;28;19916;-56
2021/11/02 01:56:26;;;;;;;;;;;18.60;62.30;;;;;;5043223;28;19949;-56
2021/11/02 01:58:53;;;;;;;;;;;18.60;62.40;;;;;;5042719;28;19967;-56
2021/11/02 02:01:24;;;;;;;;;;;18.60;62.40;;;;;;5025661;28;19921;-56
2021/11/02 02:03:52;;;;;;;;;;;18.60;62.40;;;;;;5041351;28;19920;-54
2021/11/02 02:06:25;;;;;;;;;;;18.50;62.40;;;;;;5024353;28;20474;-58
2021/11/02 02:09:06;;;;;;;;;;;18.50;62.40;;;;;;5043197;28;19917;-54
2021/11/02 02:11:44;;;;;;;;;;;18.60;62.40;;;;;;5025340;28;19964;-56
2021/11/02 02:14:17;;;;;;;;;;;18.60;62.50;;;;;;5039147;28;19940;-56
2021/11/02 02:16:44;;;;;;;;;;;18.50;62.40;;;;;;5042830;28;19919;-56
2021/11/02 02:19:10;;;;;;;;;;;18.60;62.40;;;;;;5042752;28;19913;-57
2021/11/02 02:21:54;;;;;;;;;;;18.60;62.30;;;;;;5043133;28;19921;-57
2021/11/02 02:24:22;;;;;;;;;;;18.60;62.30;;;;;;5042208;28;19924;-56
2021/11/02 02:26:50;;;;;;;;;;;18.60;62.30;;;;;;5024760;28;19995;-56
2021/11/02 02:29:15;;;;;;;;;;;18.60;62.30;;;;;;5042485;28;19955;-55
2021/11/02 02:31:42;;;;;;;;;;;18.50;62.20;;;;;;5043169;28;19913;-57
2021/11/02 02:34:11;;;;;;;;;;;18.60;62.30;;;;;;5038801;28;19948;-57
2021/11/02 02:36:37;;;;;;;;;;;18.60;62.30;;;;;;5042764;28;19912;-55
2021/11/02 02:39:02;;;;;;;;;;;18.60;62.20;;;;;;5025896;28;19919;-58
2021/11/02 02:41:28;;;;;;;;;;;18.60;62.20;;;;;;5030024;28;19916;-54
2021/11/02 02:43:53;;;;;;;;;;;18.60;62.20;;;;;;5023541;28;19966;-53
2021/11/02 02:46:19;;;;;;;;;;;18.60;62.10;;;;;;5042553;28;19940;-54
2021/11/02 02:48:44;;;;;;;;;;;18.60;62.20;;;;;;5041887;28;19931;-52
2021/11/02 02:51:10;;;;;;;;;;;18.60;62.10;;;;;;5042753;28;19920;-55
2021/11/02 02:53:35;;;;;;;;;;;18.60;62.10;;;;;;5025557;28;19997;-58
2021/11/02 02:56:03;;;;;;;;;;;18.60;62.10;;;;;;5036240;28;19913;-58
2021/11/02 02:58:29;;;;;;;;;;;18.60;62.20;;;;;;5042317;28;19913;-57
2021/11/02 03:00:55;;;;;;;;;;;18.60;62.20;;;;;;5041165;28;19923;-57
2021/11/02 03:03:21;;;;;;;;;;;18.60;62.10;;;;;;5042218;28;19912;-58
2021/11/02 03:05:47;;;;;;;;;;;18.50;62.00;;;;;;5024633;28;20020;-56
2021/11/02 03:08:12;;;;;;;;;;;18.50;62.10;;;;;;5042664;28;20433;-57
2021/11/02 03:10:38;;;;;;;;;;;18.50;62.20;;;;;;5041574;28;20432;-57
2021/11/02 03:13:06;;;;;;;;;;;18.50;62.20;;;;;;5042336;28;20188;-55
2021/11/02 03:15:57;;;;;;;;;;;18.50;62.20;;;;;;5042299;28;19913;-56
2021/11/02 03:19:06;;;;;;;;;;;18.50;62.20;;;;;;5027793;28;19920;-58
2021/11/02 03:48:53;;;;;;;;;;;18.50;62.10;;;;;;5028366;28;19982;-57
2021/11/02 04:24:39;;;;;;;;;;;18.50;62.10;;;;;;5030871;28;19971;-58
2021/11/02 04:27:21;;;;;;;;;;;18.50;62.10;;;;;;5031285;28;19913;-54
2021/11/02 04:35:49;;;;;;;;;;;18.40;62.00;;;;;;5030086;28;19958;-57
2021/11/02 04:44:08;;;;;;;;;;;18.40;62.10;;;;;;5026900;28;20570;-55
2021/11/02 05:11:03;;;;;;;;;;;18.40;61.90;;;;;;5028430;28;19924;-54
2021/11/02 05:56:57;;;;;;;;;;;18.40;62.20;;;;;;5003593;28;19952;-54
2021/11/02 06:02:32;;;;;;;;;;;18.40;62.00;;;;;;5012075;28;19921;-53
2021/11/02 06:09:55;;;;;;;;;;;18.40;62.00;;;;;;5011710;28;20595;-54
2021/11/02 06:28:50;;;;;;;;;;;18.30;63.30;;;;;;5003883;28;20285;-52
2021/11/02 06:31:34;;;;;;;;;;;18.30;63.50;;;;;;5007400;28;19960;-51
2021/11/02 06:34:15;;;;;;;;;;;18.30;63.50;;;;;;5001483;28;19928;-56
2021/11/02 06:56:08;;;;;;;;;;;18.40;61.80;;;;;;5040899;28;19912;-55
2021/11/02 07:18:22;;;;;;;;;;;18.30;61.00;;;;;;4963630;28;19950;-54
2021/11/02 08:46:28;;;;;;;;;;;18.20;62.00;;;;;;5027578;28;19974;-52
2021/11/02 08:48:57;;;;;;;;;;;18.20;61.90;;;;;;5038267;28;19917;-52
2021/11/02 08:51:23;;;;;;;;;;;18.20;61.90;;;;;;5036716;28;19999;-55
2021/11/02 08:53:49;;;;;;;;;;;18.20;62.00;;;;;;5040431;28;19991;-53
2021/11/02 08:56:15;;;;;;;;;;;18.20;62.00;;;;;;5026968;28;19920;-55
2021/11/02 08:58:41;;;;;;;;;;;18.20;62.00;;;;;;5036067;28;20249;-56
2021/11/02 09:01:06;;;;;;;;;;;18.20;62.00;;;;;;5041878;28;20354;-57
2021/11/02 09:03:32;;;;;;;;;;;18.20;62.00;;;;;;5026775;28;19920;-55
2021/11/02 09:06:06;;;;;;;;;;;18.20;62.10;;;;;;5039458;28;20329;-52
2021/11/02 09:08:39;;;;;;;;;;;18.20;62.00;;;;;;5025270;28;19995;-58
2021/11/02 09:11:04;;;;;;;;;;;18.20;62.10;;;;;;5031468;28;19995;-59
2021/11/02 09:13:30;;;;;;;;;;;18.20;62.10;;;;;;5031097;28;19913;-55
2021/11/02 09:15:57;;;;;;;;;;;18.20;62.10;;;;;;5031343;28;19924;-54
2021/11/02 09:18:23;;;;;;;;;;;18.20;62.00;;;;;;5032932;28;19923;-54
2021/11/02 09:20:48;;;;;;;;;;;18.20;62.00;;;;;;5054713;28;19913;-54
2021/11/02 09:23:14;;;;;;;;;;;18.10;62.00;;;;;;5040883;28;19920;-53
2021/11/02 09:25:39;;;;;;;;;;;18.10;62.10;;;;;;5037993;28;20493;-54
2021/11/02 09:28:05;;;;;;;;;;;18.10;62.00;;;;;;5038732;28;19921;-58
2021/11/02 09:30:30;;;;;;;;;;;18.10;62.10;;;;;;5048164;28;19921;-55
2021/11/02 09:32:56;;;;;;;;;;;18.10;62.10;;;;;;5038893;28;19919;-54
2021/11/02 09:35:22;;;;;;;;;;;18.20;62.10;;;;;;5058144;28;20585;-53
2021/11/02 09:37:51;;;;;;;;;;;18.10;62.10;;;;;;5043791;28;19924;-54
2021/11/02 09:40:16;;;;;;;;;;;18.10;62.00;;;;;;5032256;28;19964;-53
2021/11/02 09:42:55;;;;;;;;;;;18.10;62.00;;;;;;5034817;28;19965;-55
2021/11/02 09:45:39;;;;;;;;;;;18.10;62.10;;;;;;5034589;28;19921;-58
2021/11/02 09:48:17;;;;;;;;;;;18.10;62.00;;;;;;5043082;28;20441;-57
2021/11/02 09:51:02;;;;;;;;;;;18.10;62.00;;;;;;5045018;28;20008;-57
2021/11/02 09:53:33;;;;;;;;;;;18.20;62.10;;;;;;5042800;28;19917;-55
2021/11/02 09:56:03;;;;;;;;;;;18.20;62.00;;;;;;5043324;28;19991;-54
2021/11/02 09:58:47;;;;;;;;;;;18.10;62.00;;;;;;5036655;28;19971;-52
2021/11/02 10:01:45;;;;;;;;;;;18.20;62.10;;;;;;5018993;28;19917;-52
2021/11/02 10:04:19;;;;;;;;;;;18.20;62.00;;;;;;4981723;28;20364;-51
2021/11/02 10:07:07;;;;;;;;;;;18.20;62.00;;;;;;5048530;28;19913;-58
2021/11/02 10:09:52;;;;;;;;;;;18.20;61.90;;;;;;5028332;28;19913;-55
2021/11/02 10:12:21;;;;;;;;;;;18.20;62.00;;;;;;5030218;28;19913;-55
2021/11/02 10:15:03;;;;;;;;;;;18.20;62.00;;;;;;5017088;28;19913;-57
2021/11/02 10:17:45;;;;;;;;;;;18.20;62.00;;;;;;5023038;28;20016;-56
2021/11/02 10:20:16;;;;;;;;;;;18.20;62.00;;;;;;5037629;28;19920;-55
2021/11/02 10:23:05;;;;;;;;;;;18.20;62.00;;;;;;5026531;28;19947;-58
2021/11/02 10:25:37;;;;;;;;;;;18.20;61.90;;;;;;5004308;28;19940;-56
2021/11/02 10:28:14;;;;;;;;;;;18.20;62.00;;;;;;5040047;28;19917;-57
2021/11/02 10:30:45;;;;;;;;;;;18.20;61.90;;;;;;5028324;28;20343;-53
2021/11/02 10:33:23;;;;;;;;;;;18.20;61.90;;;;;;5027092;28;19920;-56
2021/11/02 10:36:03;;;;;;;;;;;18.20;61.90;;;;;;5025994;28;20337;-53
2021/11/02 10:38:40;;;;;;;;;;;18.20;61.90;;;;;;5041375;28;19921;-54
2021/11/02 10:41:07;;;;;;;;;;;18.20;61.90;;;;;;5016382;28;19944;-55
2021/11/02 10:43:39;;;;;;;;;;;18.20;61.90;;;;;;5034246;28;19913;-55
2021/11/02 10:46:05;;;;;;;;;;;18.20;61.90;;;;;;5033783;28;19921;-51
2021/11/02 10:48:47;;;;;;;;;;;18.20;61.90;;;;;;5041281;28;19912;-51
2021/11/02 10:51:31;;;;;;;;;;;18.20;61.90;;;;;;5021062;28;19912;-55
2021/11/02 10:53:58;;;;;;;;;;;18.20;61.90;;;;;;5019960;28;19913;-52
2021/11/02 10:56:42;;;;;;;;;;;18.10;61.90;;;;;;5014697;28;19920;-54
2021/11/02 10:59:11;;;;;;;;;;;18.10;61.90;;;;;;5026357;28;19913;-56
2021/11/02 11:01:37;;;;;;;;;;;18.20;61.90;;;;;;5006327;28;19917;-55
2021/11/02 11:04:03;;;;;;;;;;;18.20;61.90;;;;;;5010468;28;19934;-52
2021/11/02 11:06:28;;;;;;;;;;;18.20;61.90;;;;;;5024467;28;20461;-58
2021/11/02 11:08:53;;;;;;;;;;;18.20;61.90;;;;;;5039073;28;19917;-56
2021/11/02 11:11:20;;;;;;;;;;;18.20;61.90;;;;;;5020780;28;20030;-57
2021/11/02 11:13:46;;;;;;;;;;;18.20;61.90;;;;;;5036573;28;19913;-57
2021/11/02 11:16:18;;;;;;;;;;;18.20;61.90;;;;;;5040044;28;19940;-56
2021/11/02 11:18:44;;;;;;;;;;;18.20;61.90;;;;;;5037162;28;20132;-57
2021/11/02 11:21:09;;;;;;;;;;;18.20;61.90;;;;;;5023167;28;20019;-56
2021/11/02 11:23:35;;;;;;;;;;;18.20;61.90;;;;;;5020585;28;19917;-54
2021/11/02 11:26:05;;;;;;;;;;;18.20;61.90;;;;;;5018060;28;19917;-53
2021/11/02 11:28:39;;;;;;;;;;;18.20;62.50;;;;;;5020272;28;19917;-57
2021/11/02 11:31:05;;;;;;;;;;;18.20;61.90;;;;;;5039584;22;19925;-57
2021/11/02 11:33:31;;;;;;;;;;;18.20;62.00;;;;;;5020304;28;20283;-54
2021/11/02 11:35:59;;;;;;;;;;;18.10;62.00;;;;;;5018369;28;19944;-56
2021/11/02 11:38:26;;;;;;;;;;;18.10;62.00;;;;;;5019261;28;20545;-55
2021/11/02 11:40:51;;;;;;;;;;;18.10;62.00;;;;;;5037655;28;19913;-54
2021/11/02 11:43:17;;;;;;;;;;;18.20;62.10;;;;;;5024954;28;20293;-58
2021/11/02 11:45:44;;;;;;;;;;;18.20;61.90;;;;;;5027562;28;19921;-55
2021/11/02 11:48:10;;;;;;;;;;;18.10;62.00;;;;;;5050666;28;19913;-57
2021/11/02 11:50:36;;;;;;;;;;;18.10;62.00;;;;;;5034189;28;19919;-58
2021/11/02 11:53:04;;;;;;;;;;;18.10;62.00;;;;;;5036390;28;19917;-57
2021/11/02 11:55:31;;;;;;;;;;;18.10;62.00;;;;;;5026973;28;19917;-54
2021/11/02 11:58:00;;;;;;;;;;;18.10;62.00;;;;;;5041047;28;19951;-55
2021/11/02 12:00:26;;;;;;;;;;;18.10;62.00;;;;;;5028279;28;19923;-56
2021/11/02 12:03:17;;;;;;;;;;;18.10;62.00;;;;;;5030032;28;20035;-56
2021/11/02 12:05:44;;;;;;;;;;;18.10;62.00;;;;;;5026464;28;20229;-55
2021/11/02 12:08:22;;;;;;;;;;;18.10;62.00;;;;;;5029543;28;19917;-54
2021/11/02 12:10:49;;;;;;;;;;;18.10;61.90;;;;;;5034702;28;20630;-55
2021/11/02 12:13:15;;;;;;;;;;;18.10;61.80;;;;;;5040829;28;19920;-55
2021/11/02 12:15:42;;;;;;;;;;;18.20;61.80;;;;;;5022006;28;19914;-55
2021/11/02 12:18:07;;;;;;;;;;;18.20;61.70;;;;;;5028781;28;20290;-55
2021/11/02 12:20:33;;;;;;;;;;;18.20;61.70;;;;;;5036301;28;19913;-55
2021/11/02 12:23:01;;;;;;;;;;;18.20;61.70;;;;;;5052122;28;20017;-57
2021/11/02 12:25:31;;;;;;;;;;;18.20;61.60;;;;;;5050599;28;19920;-56
2021/11/02 12:27:57;;;;;;;;;;;18.20;61.60;;;;;;5029225;28;20042;-57
2021/11/02 12:30:22;;;;;;;;;;;18.20;61.60;;;;;;5060277;28;19925;-57
2021/11/02 12:32:51;;;;;;;;;;;18.20;61.60;;;;;;5043031;28;20400;-57
2021/11/02 12:35:19;;;;;;;;;;;18.20;61.50;;;;;;5023939;28;19913;-55
2021/11/02 12:37:58;;;;;;;;;;;18.20;61.50;;;;;;5051900;28;19960;-56
2021/11/02 12:40:25;;;;;;;;;;;18.20;61.60;;;;;;5027601;28;20497;-56
2021/11/02 12:42:50;;;;;;;;;;;18.20;61.60;;;;;;5043901;28;20079;-57
2021/11/02 12:45:17;;;;;;;;;;;18.20;61.50;;;;;;5035726;28;20425;-57
2021/11/02 12:47:43;;;;;;;;;;;18.20;61.50;;;;;;5044363;28;19913;-56
2021/11/02 12:50:09;;;;;;;;;;;18.20;61.50;;;;;;5025645;28;19920;-56
2021/11/02 12:52:36;;;;;;;;;;;18.30;61.50;;;;;;5031251;28;19913;-56
2021/11/02 12:55:01;;;;;;;;;;;18.30;61.40;;;;;;5024222;28;19913;-56
2021/11/02 12:57:31;;;;;;;;;;;18.20;61.40;;;;;;5025851;28;19920;-57
2021/11/02 13:00:00;;;;;;;;;;;18.30;61.40;;;;;;5034922;28;20116;-57
2021/11/02 13:02:35;;;;;;;;;;;18.20;61.40;;;;;;5028208;28;19945;-57
2021/11/02 13:05:02;;;;;;;;;;;18.20;61.40;;;;;;5005893;28;20429;-57
2021/11/02 13:07:28;;;;;;;;;;;18.20;61.40;;;;;;5022890;28;19921;-56
2021/11/02 13:09:55;;;;;;;;;;;18.20;61.40;;;;;;5022849;28;20014;-55
2021/11/02 13:12:24;;;;;;;;;;;18.30;61.40;;;;;;5022919;28;20758;-57
2021/11/02 13:14:49;;;;;;;;;;;18.20;61.30;;;;;;5023477;28;20398;-55
2021/11/02 13:17:25;;;;;;;;;;;18.20;61.40;;;;;;5024310;28;19920;-56
2021/11/02 13:19:53;;;;;;;;;;;18.20;61.40;;;;;;5023355;28;19913;-53
2021/11/02 13:22:22;;;;;;;;;;;18.20;61.30;;;;;;5023457;28;20460;-55
2021/11/02 13:24:54;;;;;;;;;;;18.30;61.30;;;;;;5023535;28;19936;-54
2021/11/02 13:27:28;;;;;;;;;;;18.20;61.30;;;;;;5023526;28;20306;-56
2021/11/02 13:29:53;;;;;;;;;;;18.20;61.30;;;;;;5022914;28;19928;-56
2021/11/02 13:32:19;;;;;;;;;;;18.30;61.40;;;;;;5023467;28;19921;-52
2021/11/02 13:34:44;;;;;;;;;;;18.30;61.40;;;;;;5022706;28;19978;-55
2021/11/02 13:37:11;;;;;;;;;;;18.30;61.40;;;;;;5023710;28;20572;-55
2021/11/02 13:39:55;;;;;;;;;;;18.30;61.30;;;;;;5023585;28;20414;-57
2021/11/02 13:42:39;;;;;;;;;;;18.30;61.40;;;;;;5022878;28;19917;-58
2021/11/02 13:45:05;;;;;;;;;;;18.30;61.30;;;;;;5023157;28;19917;-57
2021/11/02 13:47:31;;;;;;;;;;;18.30;61.30;;;;;;5020799;28;20608;-56
2021/11/02 13:49:57;;;;;;;;;;;18.30;61.40;;;;;;5023513;28;19914;-57
2021/11/02 13:52:22;;;;;;;;;;;18.30;61.40;;;;;;5023742;28;20293;-56
2021/11/02 13:54:48;;;;;;;;;;;18.30;61.20;;;;;;5023735;28;19928;-58
2021/11/02 13:57:13;;;;;;;;;;;18.30;61.20;;;;;;5020922;28;20028;-56
2021/11/02 13:59:39;;;;;;;;;;;18.30;61.20;;;;;;5022958;28;19963;-56
2021/11/02 14:02:04;;;;;;;;;;;18.30;61.20;;;;;;5021168;28;19949;-57
2021/11/02 14:04:39;;;;;;;;;;;18.30;61.20;;;;;;5022345;28;19913;-58
2021/11/02 14:07:07;;;;;;;;;;;18.30;61.30;;;;;;5011914;28;19913;-57
2021/11/02 14:09:33;;;;;;;;;;;18.30;61.30;;;;;;5027810;28;19917;-57
2021/11/02 14:11:59;;;;;;;;;;;18.30;61.30;;;;;;5030676;28;19917;-57
2021/11/02 14:14:34;;;;;;;;;;;18.30;61.30;;;;;;5030753;28;19994;-56
2021/11/02 14:17:15;;;;;;;;;;;18.30;61.30;;;;;;5016354;28;19971;-58
2021/11/02 14:19:41;;;;;;;;;;;18.30;61.20;;;;;;5012914;28;19920;-57
2021/11/02 14:22:07;;;;;;;;;;;18.30;61.20;;;;;;5006403;28;19979;-57
2021/11/02 14:24:33;;;;;;;;;;;18.30;61.10;;;;;;5021046;28;19923;-58
2021/11/02 14:26:59;;;;;;;;;;;18.30;61.10;;;;;;5021437;28;19917;-57
2021/11/02 14:29:44;;;;;;;;;;;18.30;61.70;;;;;;5022406;28;19913;-58
2021/11/02 14:32:09;;;;;;;;;;;18.30;61.10;;;;;;5021049;28;20588;-57
2021/11/02 14:34:38;;;;;;;;;;;18.30;61.10;;;;;;5021695;28;19952;-56
2021/11/02 14:37:16;;;;;;;;;;;18.30;61.10;;;;;;5022165;28;19917;-53
2021/11/02 14:39:58;;;;;;;;;;;18.30;61.10;;;;;;5021115;28;19917;-57
2021/11/02 14:42:39;;;;;;;;;;;18.30;61.10;;;;;;5022248;28;19974;-56
2021/11/02 14:45:05;;;;;;;;;;;18.30;61.00;;;;;;5018548;28;20306;-57
2021/11/02 14:47:33;;;;;;;;;;;18.30;61.00;;;;;;5021048;28;20279;-58
2021/11/02 14:49:59;;;;;;;;;;;18.30;61.00;;;;;;5021030;28;19913;-60
2021/11/02 14:52:25;;;;;;;;;;;18.30;61.00;;;;;;5021271;28;19913;-56
2021/11/02 14:54:50;;;;;;;;;;;18.30;61.00;;;;;;5022416;28;20552;-57
2021/11/02 14:57:18;;;;;;;;;;;18.30;61.00;;;;;;5020485;28;19921;-57
2021/11/02 14:59:55;;;;;;;;;;;18.30;61.00;;;;;;5010739;28;19917;-54
2021/11/02 15:02:35;;;;;;;;;;;18.30;61.00;;;;;;5022563;28;19921;-56
2021/11/02 15:05:06;;;;;;;;;;;18.30;61.00;;;;;;5013644;28;19945;-57
2021/11/02 15:07:34;;;;;;;;;;;18.30;61.00;;;;;;5021819;28;19913;-57
2021/11/02 15:10:03;;;;;;;;;;;18.30;61.00;;;;;;5021989;28;19913;-55
2021/11/02 15:12:29;;;;;;;;;;;18.30;61.00;;;;;;5020194;28;19936;-64
2021/11/02 15:14:54;;;;;;;;;;;18.30;61.00;;;;;;5031973;28;19947;-53
2021/11/02 15:17:20;;;;;;;;;;;18.30;61.00;;;;;;5021726;28;19971;-57
2021/11/02 15:19:46;;;;;;;;;;;18.30;61.00;;;;;;5029821;28;19917;-57
2021/11/02 15:22:13;;;;;;;;;;;18.30;61.00;;;;;;5033183;28;19924;-56
2021/11/02 15:24:39;;;;;;;;;;;18.30;61.00;;;;;;5032184;28;20036;-56
2021/11/02 15:27:08;;;;;;;;;;;18.30;61.00;;;;;;5037903;28;19920;-53
2021/11/02 15:29:35;;;;;;;;;;;18.30;61.00;;;;;;5023366;28;20442;-54
2021/11/02 15:32:02;;;;;;;;;;;18.30;60.90;;;;;;5031868;28;19967;-57
2021/11/02 15:34:46;;;;;;;;;;;18.30;60.90;;;;;;5025159;28;19913;-57
2021/11/02 15:37:24;;;;;;;;;;;18.40;60.90;;;;;;5006353;28;19917;-56
2021/11/02 15:39:53;;;;;;;;;;;18.40;61.10;;;;;;5001850;28;19953;-58
2021/11/02 15:42:23;;;;;;;;;;;18.30;60.90;;;;;;5010635;28;20074;-57
2021/11/02 15:44:54;;;;;;;;;;;18.30;60.80;;;;;;5010988;28;20501;-58
2021/11/02 15:47:19;;;;;;;;;;;18.30;60.90;;;;;;5010418;28;19917;-55
2021/11/02 15:49:52;;;;;;;;;;;18.30;60.90;;;;;;5017201;28;20008;-57
2021/11/02 15:52:17;;;;;;;;;;;18.30;60.90;;;;;;5019978;28;20012;-53
2021/11/02 15:54:46;;;;;;;;;;;18.30;60.90;;;;;;5021034;28;19919;-56
2021/11/02 15:57:11;;;;;;;;;;;18.30;60.90;;;;;;5019571;28;20389;-57
2021/11/02 15:59:37;;;;;;;;;;;18.30;60.80;;;;;;5024712;28;20016;-55
2021/11/02 16:02:03;;;;;;;;;;;18.30;60.80;;;;;;5025000;28;20371;-54
2021/11/02 16:04:29;;;;;;;;;;;18.30;60.80;;;;;;5025280;28;19936;-56
2021/11/02 16:06:57;;;;;;;;;;;18.30;60.80;;;;;;5025189;28;20473;-54
2021/11/02 16:09:42;;;;;;;;;;;18.30;60.90;;;;;;5024731;28;19970;-56
2021/11/02 16:12:15;;;;;;;;;;;18.30;60.90;;;;;;5024768;28;19913;-56
2021/11/02 16:14:50;;;;;;;;;;;18.30;60.80;;;;;;5024505;28;19917;-56
2021/11/02 16:17:15;;;;;;;;;;;18.30;60.90;;;;;;5025753;28;19914;-57
2021/11/02 16:19:41;;;;;;;;;;;18.30;60.90;;;;;;5023923;28;19913;-57
2021/11/02 16:22:06;;;;;;;;;;;18.30;60.90;;;;;;5024315;28;19988;-56
2021/11/02 16:24:33;;;;;;;;;;;18.30;60.90;;;;;;5022818;28;19920;-57
2021/11/02 16:27:00;;;;;;;;;;;18.30;61.00;;;;;;5026228;28;19948;-57
2021/11/02 16:29:28;;;;;;;;;;;18.20;60.90;;;;;;5022855;28;20391;-54
2021/11/02 16:31:56;;;;;;;;;;;18.20;61.00;;;;;;5025559;28;19931;-57
2021/11/02 16:34:22;;;;;;;;;;;18.20;61.00;;;;;;5028893;28;20080;-56
2021/11/02 16:36:48;;;;;;;;;;;18.30;61.10;;;;;;5024757;28;19913;-57
2021/11/02 16:39:13;;;;;;;;;;;18.20;61.00;;;;;;5024295;28;19920;-56
2021/11/02 16:41:45;;;;;;;;;;;18.20;61.10;;;;;;5024313;28;20294;-54
2021/11/02 16:44:12;;;;;;;;;;;18.20;61.10;;;;;;5024780;28;20390;-57
2021/11/02 16:46:38;;;;;;;;;;;18.20;61.10;;;;;;5038718;28;19913;-58
2021/11/02 16:49:12;;;;;;;;;;;18.20;61.10;;;;;;5023664;28;19917;-55
2021/11/02 16:51:54;;;;;;;;;;;18.20;61.10;;;;;;5023863;28;19913;-56
2021/11/02 16:54:19;;;;;;;;;;;18.20;61.10;;;;;;5013686;28;19928;-54
2021/11/02 16:57:02;;;;;;;;;;;18.20;61.10;;;;;;5023548;28;19913;-56
2021/11/02 16:59:40;;;;;;;;;;;18.20;61.20;;;;;;5023225;28;19960;-56
2021/11/02 17:02:17;;;;;;;;;;;18.20;61.10;;;;;;5023867;28;20333;-56
2021/11/02 17:04:49;;;;;;;;;;;18.20;61.00;;;;;;5022485;28;19968;-55
2021/11/02 17:07:15;;;;;;;;;;;18.20;61.00;;;;;;5022618;28;19920;-56
2021/11/02 17:09:40;;;;;;;;;;;18.20;61.10;;;;;;5021818;28;19913;-57
2021/11/02 17:12:08;;;;;;;;;;;18.20;61.10;;;;;;5024218;28;20004;-56
2021/11/02 17:14:35;;;;;;;;;;;18.20;61.10;;;;;;5023489;28;19952;-54
2021/11/02 17:17:01;;;;;;;;;;;18.20;61.10;;;;;;5023975;28;20290;-56
2021/11/02 17:19:27;;;;;;;;;;;18.20;61.10;;;;;;5022963;28;19913;-54
2021/11/02 17:21:53;;;;;;;;;;;18.20;61.10;;;;;;5023311;28;19951;-58
2021/11/02 17:24:18;;;;;;;;;;;18.20;61.10;;;;;;5023002;28;19933;-58
2021/11/02 17:26:44;;;;;;;;;;;18.20;61.20;;;;;;5023570;28;20594;-57
2021/11/02 17:29:09;;;;;;;;;;;18.20;61.20;;;;;;5023546;28;19966;-57
2021/11/02 17:31:39;;;;;;;;;;;18.20;61.20;;;;;;5043322;22;19929;-56
2021/11/02 17:34:06;;;;;;;;;;;18.10;61.20;;;;;;5017006;28;19913;-51
2021/11/02 17:36:32;;;;;;;;;;;18.20;61.10;;;;;;5021234;28;20180;-58
2021/11/02 17:38:57;;;;;;;;;;;18.20;61.20;;;;;;5003736;28;20354;-54
2021/11/02 17:41:23;;;;;;;;;;;18.20;61.10;;;;;;5019764;28;20551;-53
2021/11/02 17:43:51;;;;;;;;;;;18.20;61.10;;;;;;5020746;28;19913;-51
2021/11/02 17:46:16;;;;;;;;;;;18.20;61.10;;;;;;5020651;28;19914;-54
2021/11/02 17:48:42;;;;;;;;;;;18.10;61.10;;;;;;5020662;28;19913;-55
2021/11/02 17:51:07;;;;;;;;;;;18.10;61.10;;;;;;5003317;28;20026;-54
2021/11/02 17:53:33;;;;;;;;;;;18.10;61.20;;;;;;5022696;28;20371;-56
2021/11/02 17:55:59;;;;;;;;;;;18.20;61.20;;;;;;5022845;28;19913;-55
2021/11/02 17:58:25;;;;;;;;;;;18.10;61.20;;;;;;5021875;28;19996;-58
2021/11/02 18:00:50;;;;;;;;;;;18.10;61.20;;;;;;5021892;28;20000;-56
2021/11/02 18:03:16;;;;;;;;;;;18.10;61.10;;;;;;5020775;28;19932;-52
2021/11/02 18:05:42;;;;;;;;;;;18.10;61.10;;;;;;5022049;28;19920;-52
2021/11/02 18:08:09;;;;;;;;;;;18.20;61.10;;;;;;5020231;28;19951;-52
2021/11/02 18:10:35;;;;;;;;;;;18.20;61.00;;;;;;5020672;28;19913;-54
2021/11/02 18:13:01;;;;;;;;;;;18.20;61.00;;;;;;5022523;28;19920;-58
2021/11/02 18:15:26;;;;;;;;;;;18.20;61.00;;;;;;5025271;28;19913;-53
2021/11/02 18:17:53;;;;;;;;;;;18.20;61.00;;;;;;5021179;28;20425;-55
2021/11/02 18:20:19;;;;;;;;;;;18.20;60.90;;;;;;5019829;28;20006;-52
2021/11/02 18:22:44;;;;;;;;;;;18.20;60.90;;;;;;5022241;28;20011;-56
2021/11/02 18:25:10;;;;;;;;;;;18.20;60.90;;;;;;5020335;28;19996;-51
2021/11/02 18:27:36;;;;;;;;;;;18.20;60.80;;;;;;5021414;28;19925;-56
2021/11/02 18:30:01;;;;;;;;;;;18.20;60.80;;;;;;5021181;28;19917;-56
2021/11/02 18:32:27;;;;;;;;;;;18.20;60.80;;;;;;5021764;28;19963;-55
2021/11/02 18:34:52;;;;;;;;;;;18.20;60.70;;;;;;5020583;28;19917;-52
2021/11/02 18:37:18;;;;;;;;;;;18.20;60.80;;;;;;5022205;28;19920;-52
2021/11/02 18:39:43;;;;;;;;;;;18.20;60.80;;;;;;5019430;28;20583;-56
2021/11/02 18:42:09;;;;;;;;;;;18.20;60.70;;;;;;5022227;28;19928;-53
2021/11/02 18:44:34;;;;;;;;;;;18.20;60.70;;;;;;5019656;28;20383;-55
2021/11/02 18:47:00;;;;;;;;;;;18.20;60.70;;;;;;5021905;28;20008;-55
2021/11/02 18:49:25;;;;;;;;;;;18.10;60.90;;;;;;5022006;28;20294;-58
2021/11/02 18:51:51;;;;;;;;;;;18.10;60.90;;;;;;5020937;28;19925;-54
2021/11/02 18:54:17;;;;;;;;;;;18.20;61.00;;;;;;5022028;28;19917;-57
2021/11/02 18:56:42;;;;;;;;;;;18.10;61.00;;;;;;5019858;28;20283;-56
2021/11/02 18:59:08;;;;;;;;;;;18.10;61.10;;;;;;5020406;28;19919;-55
2021/11/02 19:01:34;;;;;;;;;;;18.10;61.20;;;;;;4997774;28;19917;-51
2021/11/02 19:03:59;;;;;;;;;;;18.10;61.20;;;;;;5021189;28;19914;-52
2021/11/02 19:06:25;;;;;;;;;;;18.10;61.20;;;;;;5020956;28;19919;-52
2021/11/02 19:08:51;;;;;;;;;;;18.10;61.30;;;;;;5021397;28;20306;-51
2021/11/02 19:11:16;;;;;;;;;;;18.10;61.40;;;;;;5021122;28;19917;-56
2021/11/02 19:13:42;;;;;;;;;;;18.10;61.40;;;;;;5022010;28;20378;-55
2021/11/02 19:16:07;;;;;;;;;;;18.10;61.30;;;;;;5020580;28;20000;-51